Time;durP1;ratioP1;P1;durP2;ratioP2;P2;SDS_P1;SDS_P2;PMS_P1;PMS_P2;Temp;Humidity;BMP_temperature;BMP_pressure;BME280_temperature;BME280_humidity;BME280_pressure;Samples;Min_cycle;Max_cycle;Signal;HPM_P1;HPM_P2
2022/07/03 07:59:05;;;;;;;9.27;3.83;;;;;;;18.69;70.12;101674.66;5300320;27;20409;-70
2022/07/03 08:07:16;;;;;;;5.75;3.83;;;;;;;18.81;68.63;101679.66;5300916;28;20044;-71
2022/07/03 08:09:47;;;;;;;4.10;3.50;;;;;;;18.98;67.72;101676.91;5283851;28;20479;-71
2022/07/03 08:12:20;;;;;;;5.75;3.90;;;;;;;18.97;67.91;101675.25;5296740;28;20021;-71
2022/07/03 08:14:51;;;;;;;6.03;4.30;;;;;;;18.87;68.67;101676.38;5297216;28;20040;-71
2022/07/03 08:17:22;;;;;;;5.72;3.85;;;;;;;19.09;68.27;101681.06;5297606;28;20028;-71
2022/07/03 08:19:54;;;;;;;6.88;4.22;;;;;;;19.22;67.92;101684.88;5279472;28;20033;-72
2022/07/03 08:22:25;;;;;;;5.60;3.83;;;;;;;19.30;66.81;101677.63;5280751;28;20100;-71
2022/07/03 08:24:56;;;;;;;5.18;3.33;;;;;;;19.09;67.21;101681.06;5286338;28;20434;-71
2022/07/03 08:27:31;;;;;;;6.95;3.70;;;;;;;19.28;66.65;101674.31;5300490;28;20062;-71
2022/07/03 08:30:03;;;;;;;5.40;3.95;;;;;;;19.40;66.13;101680.09;5298197;28;20518;-71
2022/07/03 08:32:34;;;;;;;7.78;3.92;;;;;;;19.32;65.68;101681.75;5280844;28;20028;-71
2022/07/03 08:35:08;;;;;;;4.30;3.30;;;;;;;19.49;65.59;101678.13;5300458;28;20029;-72
2022/07/03 08:37:43;;;;;;;7.65;3.20;;;;;;;19.71;65.60;101681.97;5289976;28;20032;-72
2022/07/03 08:40:16;;;;;;;5.00;3.38;;;;;;;19.82;64.71;101683.31;5283751;28;20056;-73
2022/07/03 08:42:54;;;;;;;6.38;3.40;;;;;;;19.87;64.76;101671.06;5299924;28;20066;-73
2022/07/03 08:45:25;;;;;;;6.97;3.75;;;;;;;19.72;65.42;101678.00;5299099;28;20027;-74
2022/07/03 08:48:01;;;;;;;4.53;3.38;;;;;;;19.86;65.13;101664.56;5294391;28;20383;-73
2022/07/03 08:50:34;;;;;;;5.65;3.17;;;;;;;20.12;64.66;101673.00;5292906;28;20441;-74
2022/07/03 08:53:06;;;;;;;7.50;3.95;;;;;;;20.12;63.16;101675.81;5299457;28;20024;-73
2022/07/03 08:55:40;;;;;;;4.68;3.42;;;;;;;20.11;62.53;101668.50;5285852;28;20029;-73
2022/07/03 08:58:14;;;;;;;4.25;3.00;;;;;;;20.25;62.45;101673.94;5284903;28;20414;-72
2022/07/03 09:00:45;;;;;;;8.02;3.10;;;;;;;20.23;62.38;101669.81;5298996;28;20020;-74
2022/07/03 09:03:19;;;;;;;3.75;3.20;;;;;;;20.32;62.21;101674.25;5291417;28;20030;-73
2022/07/03 09:05:51;;;;;;;4.15;3.33;;;;;;;20.45;62.25;101672.38;5291272;28;20544;-73
2022/07/03 09:08:27;;;;;;;4.03;3.53;;;;;;;20.44;62.38;101664.28;5291203;28;20028;-72
2022/07/03 09:11:02;;;;;;;6.35;3.75;;;;;;;20.44;61.85;101665.09;5285765;28;20440;-74
2022/07/03 09:13:33;;;;;;;4.18;3.17;;;;;;;20.51;62.19;101665.41;5274226;28;20117;-73
2022/07/03 09:16:04;;;;;;;3.85;3.45;;;;;;;20.48;62.01;101663.28;5272985;28;20045;-73
2022/07/03 09:18:40;;;;;;;5.45;3.55;;;;;;;20.50;62.43;101677.00;5280513;28;20123;-74
2022/07/03 09:21:16;;;;;;;5.28;3.70;;;;;;;20.72;61.72;101673.97;5288703;28;20035;-73
2022/07/03 09:23:47;;;;;;;5.95;3.15;;;;;;;20.76;61.39;101674.94;5275729;28;20025;-73
2022/07/03 09:26:19;;;;;;;4.18;3.70;;;;;;;20.81;61.46;101674.75;5271150;28;20031;-73
2022/07/03 09:28:53;;;;;;;5.38;3.90;;;;;;;20.88;61.73;101682.66;5277296;28;20467;-73
2022/07/03 09:31:26;;;;;;;13.13;11.85;;;;;;;20.87;60.97;101680.19;5280729;28;20028;-73
2022/07/03 09:34:03;;;;;;;3.72;3.28;;;;;;;20.92;61.22;101680.00;5284383;28;20383;-74
2022/07/03 09:36:51;;;;;;;6.20;5.60;;;;;;;20.70;60.00;101684.75;5278205;28;20029;-73
2022/07/03 09:39:23;;;;;;;4.35;3.80;;;;;;;20.72;59.56;101687.22;5279292;28;20045;-74
2022/07/03 09:41:59;;;;;;;4.35;3.38;;;;;;;20.71;59.66;101697.69;5280250;28;20037;-74
2022/07/03 09:44:37;;;;;;;6.15;3.97;;;;;;;20.42;60.18;101693.59;5281517;28;20017;-74
2022/07/03 09:47:14;;;;;;;6.72;3.67;;;;;;;20.58;61.25;101699.56;5282996;28;20032;-74
2022/07/03 09:49:54;;;;;;;7.88;4.45;;;;;;;20.73;61.52;101700.97;5283333;28;20388;-73
2022/07/03 09:52:38;;;;;;;5.68;3.78;;;;;;;20.82;60.92;101692.50;5284569;28;20029;-74
2022/07/03 09:55:09;;;;;;;4.63;3.60;;;;;;;20.93;60.04;101687.28;5288719;28;20479;-73
2022/07/03 09:57:45;;;;;;;4.73;4.30;;;;;;;21.08;58.74;101695.16;5263447;28;20076;-73
2022/07/03 10:00:28;;;;;;;14.95;4.97;;;;;;;21.05;58.51;101690.22;5280523;28;20285;-74
2022/07/03 10:02:59;;;;;;;8.27;5.35;;;;;;;20.98;59.45;101689.91;5281099;28;20036;-74
2022/07/03 10:05:34;;;;;;;7.47;4.78;;;;;;;20.91;59.75;101695.25;5289108;28;20036;-74
2022/07/03 10:08:13;;;;;;;;;;;;;;;21.21;57.80;101694.06;5272720;28;20033;-74
2022/07/03 10:10:46;;;;;;;4.22;3.83;;;;;;;21.12;57.36;101693.31;5274622;28;19916;-74
2022/07/03 10:13:21;;;;;;;5.40;4.90;;;;;;;21.21;57.70;101682.78;5287094;28;20467;-74
2022/07/03 10:15:53;;;;;;;5.82;4.20;;;;;;;21.42;58.14;101690.47;5266488;28;20041;-73
2022/07/03 10:18:29;;;;;;;3.75;2.97;;;;;;;21.57;58.52;101684.22;5282812;28;20031;-74
2022/07/03 10:21:04;;;;;;;4.78;4.38;;;;;;;21.51;57.98;101690.44;5274888;28;20040;-74
2022/07/03 10:23:35;;;;;;;;;;;;;;;21.59;57.76;101703.66;5269979;28;20055;-74
2022/07/03 10:26:08;;;;;;;4.13;2.85;;;;;;;21.37;57.33;101699.13;5266723;28;19913;-74
2022/07/03 10:28:40;;;;;;;7.45;4.10;;;;;;;21.27;56.40;101697.56;5302660;28;20020;-74
2022/07/03 10:31:13;;;;;;;4.95;3.58;;;;;;;21.37;56.82;101696.31;5272113;28;20086;-74
2022/07/03 10:33:45;;;;;;;7.57;4.38;;;;;;;21.27;57.59;101698.38;5304949;28;20035;-75
2022/07/03 10:36:16;;;;;;;5.53;3.28;;;;;;;21.11;57.36;101694.47;5285035;28;20400;-74
2022/07/03 10:38:48;;;;;;;4.65;2.50;;;;;;;21.22;57.02;101706.22;5266544;28;20412;-73
2022/07/03 10:47:36;;;;;;;3.63;2.40;;;;;;;21.17;56.53;101701.59;5282564;28;20466;-73
2022/07/03 10:50:17;;;;;;;6.20;2.85;;;;;;;21.16;57.01;101707.56;5263083;28;20044;-74
2022/07/03 10:52:49;;;;;;;3.13;2.28;;;;;;;21.22;55.67;101706.22;5273504;28;20509;-75
2022/07/03 10:55:20;;;;;;;3.80;2.65;;;;;;;21.32;56.03;101714.28;5270786;28;20135;-74
2022/07/03 10:58:09;;;;;;;3.60;3.30;;;;;;;21.34;55.54;101708.28;5293301;28;20040;-73
2022/07/03 11:00:58;;;;;;;4.65;3.10;;;;;;;21.24;56.19;101706.66;5271708;28;20060;-74
2022/07/03 11:03:54;;;;;;;4.20;3.22;;;;;;;21.08;56.87;101705.63;5268342;28;20020;-74
2022/07/03 11:06:57;;;;;;;;;;;;;;;21.22;57.03;101712.69;5269285;28;20181;-74
2022/07/03 11:09:29;;;;;;;4.30;3.30;;;;;;;21.15;56.74;101711.56;5220504;28;20011;-74
2022/07/03 11:12:00;;;;;;;3.80;3.45;;;;;;;21.37;55.38;101704.75;5269932;28;20099;-72
2022/07/03 11:14:31;;;;;;;8.02;3.97;;;;;;;21.35;54.82;101693.84;5277105;28;20024;-73
2022/07/03 11:17:19;;;;;;;3.47;2.92;;;;;;;21.70;53.75;101690.75;5279954;28;20031;-73
2022/07/03 11:22:53;;;;;;;3.05;2.30;;;;;;;21.51;53.38;101694.06;5280648;28;20040;-72
2022/07/03 11:25:25;;;;;;;3.05;2.50;;;;;;;21.55;52.52;101686.59;5283294;28;20222;-74
2022/07/03 11:27:56;;;;;;;3.72;2.65;;;;;;;21.66;53.57;101698.28;5266011;28;20472;-74
2022/07/03 11:30:29;;;;;;;4.70;2.53;;;;;;;21.73;52.57;101683.59;5266407;28;20032;-74
2022/07/03 11:33:01;;;;;;;2.50;1.70;;;;;;;21.75;52.66;101678.44;5274920;28;20027;-73
2022/07/03 11:35:49;;;;;;;4.35;1.85;;;;;;;21.96;52.31;101678.41;5282790;28;20024;-72
2022/07/03 11:38:24;;;;;;;3.72;2.50;;;;;;;22.14;52.09;101674.25;5281935;28;20337;-73
2022/07/03 11:40:57;;;;;;;2.97;1.77;;;;;;;22.43;51.37;101675.28;5282273;28;20481;-73
2022/07/03 11:43:29;;;;;;;3.78;2.58;;;;;;;22.06;52.32;101680.78;5282715;28;20021;-72
2022/07/03 11:46:01;;;;;;;5.03;3.40;;;;;;;21.99;54.04;101677.72;5269579;28;20398;-73
2022/07/03 11:48:32;;;;;;;5.57;5.00;;;;;;;21.92;55.00;101686.75;5269245;28;20031;-73
2022/07/03 11:51:05;;;;;;;5.65;4.30;;;;;;;22.02;55.20;101688.31;5282885;28;20091;-73
2022/07/03 11:53:38;;;;;;;5.20;4.70;;;;;;;22.15;54.86;101687.19;5282758;28;20024;-73
2022/07/03 11:56:11;;;;;;;4.13;3.60;;;;;;;22.24;54.44;101678.63;5281220;28;20380;-74
2022/07/03 11:58:50;;;;;;;4.78;2.90;;;;;;;22.09;54.54;101689.41;5280071;28;20044;-73
2022/07/03 12:01:22;;;;;;;2.97;2.33;;;;;;;22.01;54.20;101676.22;5281621;28;20024;-74
2022/07/03 12:04:19;;;;;;;4.47;2.30;;;;;;;22.04;54.06;101681.16;5275583;28;20488;-74
2022/07/03 12:06:52;;;;;;;3.00;1.83;;;;;;;21.99;53.61;101678.53;5273435;28;20082;-73
2022/07/03 12:09:26;;;;;;;3.15;1.90;;;;;;;21.87;53.75;101681.31;5265142;28;20051;-73
2022/07/03 12:12:05;;;;;;;3.60;1.80;;;;;;;21.70;53.35;101687.94;5265369;28;20047;-73
2022/07/03 12:14:39;;;;;;;3.15;1.75;;;;;;;21.70;54.76;101683.13;5261539;28;20028;-73
2022/07/03 12:17:22;;;;;;;2.40;1.85;;;;;;;22.13;54.34;101692.34;5277320;28;20032;-74
2022/07/03 12:19:56;;;;;;;4.22;2.00;;;;;;;22.29;53.10;101682.09;5275339;28;20025;-74
2022/07/03 12:22:29;;;;;;;2.78;2.25;;;;;;;22.51;52.37;101682.81;5281508;28;20024;-70
2022/07/03 12:25:03;;;;;;;1.73;1.50;;;;;;;22.72;51.57;101677.06;5282559;28;20107;-71
2022/07/03 12:27:38;;;;;;;1.75;1.50;;;;;;;22.62;49.38;101677.53;5280271;28;20021;-72
2022/07/03 12:30:19;;;;;;;2.08;1.38;;;;;;;22.35;50.51;101679.84;5261011;28;20107;-75
2022/07/03 12:32:51;;;;;;;2.17;1.10;;;;;;;22.30;49.70;101686.53;5277290;28;20421;-73
2022/07/03 12:35:26;;;;;;;2.90;1.38;;;;;;;22.35;50.18;101685.50;5280602;28;20036;-73
2022/07/03 12:37:58;;;;;;;2.90;1.48;;;;;;;22.04;48.86;101681.16;5281077;28;20039;-73
2022/07/03 12:40:29;;;;;;;3.65;1.50;;;;;;;22.15;48.91;101676.69;5280755;28;20024;-74
2022/07/03 12:43:01;;;;;;;4.47;1.20;;;;;;;22.22;47.89;101681.81;5282629;28;20043;-74
2022/07/03 12:45:32;;;;;;;3.60;1.30;;;;;;;22.51;48.18;101677.97;5280376;28;20171;-74
2022/07/03 12:48:05;;;;;;;3.28;1.13;;;;;;;22.66;47.18;101676.47;5265502;28;20089;-74
2022/07/03 12:50:57;;;;;;;4.22;1.30;;;;;;;22.71;46.65;101675.44;5265411;28;20025;-73
2022/07/03 12:53:31;;;;;;;4.45;1.40;;;;;;;22.55;46.10;101684.59;5271104;28;20050;-73
2022/07/03 12:56:04;;;;;;;1.67;1.38;;;;;;;22.63;46.30;101676.38;5265147;28;20028;-73
2022/07/03 13:01:36;;;;;;;3.55;1.20;;;;;;;22.71;47.01;101678.25;5277772;28;20376;-74
2022/07/03 13:04:09;;;;;;;2.88;1.02;;;;;;;22.35;48.10;101669.38;5265090;28;20071;-74
2022/07/03 13:06:42;;;;;;;3.80;1.27;;;;;;;22.74;46.46;101684.00;5265054;28;20472;-74
2022/07/03 13:09:13;;;;;;;2.97;1.30;;;;;;;22.46;44.54;101685.88;5266268;28;20033;-73
2022/07/03 13:11:44;;;;;;;2.80;1.30;;;;;;;22.80;44.89;101690.25;5282912;28;20070;-74
2022/07/03 13:14:17;;;;;;;1.40;0.90;;;;;;;22.69;45.18;101684.25;5283547;28;20431;-74
2022/07/03 13:16:50;;;;;;;2.20;1.00;;;;;;;22.70;44.98;101683.09;5282963;28;20021;-74
2022/07/03 13:19:24;;;;;;;4.50;2.03;;;;;;;22.97;44.60;101678.75;5277752;28;20032;-70
2022/07/03 13:21:57;;;;;;;5.22;1.42;;;;;;;23.30;44.20;101694.75;5284731;28;20024;-73
2022/07/03 13:24:29;;;;;;;2.90;1.15;;;;;;;23.34;44.03;101680.69;5284920;28;20115;-73
2022/07/03 13:27:00;;;;;;;4.55;1.23;;;;;;;23.43;43.62;101679.38;5285323;28;20099;-73
2022/07/03 13:29:31;;;;;;;5.47;1.63;;;;;;;23.46;42.19;101677.03;5286022;28;20064;-73
2022/07/03 13:32:05;;;;;;;2.30;0.90;;;;;;;23.52;41.41;101675.56;5286934;28;20063;-74
2022/07/03 13:34:37;;;;;;;3.10;1.33;;;;;;;23.43;41.88;101681.38;5285087;28;20025;-74
2022/07/03 13:37:08;;;;;;;1.30;0.90;;;;;;;23.57;42.39;101679.00;5287654;28;20023;-73
2022/07/03 13:39:39;;;;;;;2.72;0.90;;;;;;;23.65;40.24;101683.69;5287796;28;20032;-74
2022/07/03 13:42:11;;;;;;;2.05;0.93;;;;;;;23.71;39.92;101678.59;5286462;28;20036;-74
2022/07/03 13:44:43;;;;;;;2.95;1.30;;;;;;;23.86;40.28;101675.03;5275591;28;20127;-74
2022/07/03 13:47:14;;;;;;;2.50;0.85;;;;;;;23.92;40.82;101671.94;5265168;28;20028;-73
2022/07/03 13:49:45;;;;;;;2.55;1.50;;;;;;;23.82;43.90;101688.25;5265001;28;20124;-73
2022/07/03 13:52:17;;;;;;;1.65;1.40;;;;;;;23.35;46.07;101688.84;5269640;28;20507;-74
2022/07/03 13:54:50;;;;;;;3.15;1.80;;;;;;;23.20;47.45;101700.88;5286397;28;20103;-74
2022/07/03 13:57:21;;;;;;;4.07;2.00;;;;;;;23.47;47.64;101693.66;5286342;28;20110;-73
2022/07/03 13:59:52;;;;;;;3.20;2.00;;;;;;;23.13;46.91;101693.00;5285490;28;20032;-73
2022/07/03 14:02:25;;;;;;;4.15;1.67;;;;;;;23.44;47.59;101703.69;5284951;28;20108;-73
2022/07/03 14:04:56;;;;;;;3.90;2.08;;;;;;;23.10;47.77;101698.53;5286320;28;20463;-74
2022/07/03 14:07:28;;;;;;;4.53;2.00;;;;;;;23.07;48.04;101716.22;5286412;28;20099;-72
2022/07/03 14:10:06;;;;;;;3.00;2.00;;;;;;;23.42;46.36;101705.22;5287730;28;20074;-74
2022/07/03 14:12:37;;;;;;;2.10;1.58;;;;;;;23.21;46.55;101705.34;5287942;28;20076;-72
2022/07/03 14:15:09;;;;;;;3.95;2.30;;;;;;;23.37;46.12;101711.94;5287113;28;20037;-73
2022/07/03 14:17:43;;;;;;;3.50;2.15;;;;;;;23.56;45.65;101711.31;5285274;28;20519;-73
2022/07/03 14:20:14;;;;;;;2.40;1.48;;;;;;;23.51;46.06;101711.56;5265975;28;20025;-74
2022/07/03 14:22:45;;;;;;;2.63;1.50;;;;;;;23.11;46.10;101715.16;5265155;28;20438;-74
2022/07/03 14:25:17;;;;;;;4.57;1.58;;;;;;;22.74;46.43;101714.28;5264719;28;20108;-73
2022/07/03 14:33:31;;;;;;;2.92;1.60;;;;;;;23.33;45.09;101713.00;5286587;28;20048;-73
2022/07/03 14:36:03;;;;;;;2.83;1.77;;;;;;;23.56;44.88;101716.16;5296467;28;20422;-73
2022/07/03 14:38:34;;;;;;;2.85;1.80;;;;;;;23.86;43.32;101706.19;5297352;28;20024;-74
2022/07/03 14:41:08;;;;;;;2.50;1.50;;;;;;;23.79;43.64;101714.47;5297930;28;20089;-74
2022/07/03 14:43:39;;;;;;;2.25;1.63;;;;;;;23.32;44.43;101717.03;5297021;28;20021;-74
2022/07/03 14:46:11;;;;;;;2.10;1.42;;;;;;;23.22;43.97;101719.16;5297396;28;20380;-73
2022/07/03 14:48:42;;;;;;;1.20;1.10;;;;;;;23.04;43.52;101717.75;5295166;28;20379;-74
2022/07/03 14:51:13;;;;;;;3.70;1.42;;;;;;;22.78;43.74;101729.41;5276681;28;20037;-74
2022/07/03 14:53:47;;;;;;;4.18;1.25;;;;;;;23.18;43.91;101723.88;5296184;28;20039;-74
2022/07/03 14:56:20;;;;;;;2.80;1.50;;;;;;;23.34;44.96;101726.81;5299517;28;20028;-75
2022/07/03 14:58:51;;;;;;;3.20;1.30;;;;;;;23.58;45.17;101725.13;5293678;28;20036;-73
2022/07/03 15:01:23;;;;;;;2.50;1.25;;;;;;;23.04;46.45;101722.59;5283187;28;20103;-75
2022/07/03 15:04:00;;;;;;;1.63;1.17;;;;;;;23.19;46.78;101736.03;5285036;28;20032;-74
2022/07/03 15:06:31;;;;;;;4.45;1.60;;;;;;;23.25;46.51;101737.44;5295057;28;20031;-74
2022/07/03 15:09:05;;;;;;;3.08;1.70;;;;;;;22.95;46.87;101734.81;5290338;28;20028;-73
2022/07/03 15:14:53;;;;;;;3.42;1.50;;;;;;;23.26;47.03;101724.91;5277401;28;20445;-74
2022/07/03 15:17:25;;;;;;;2.20;1.50;;;;;;;23.56;46.36;101730.31;5293892;28;20036;-74
2022/07/03 15:20:01;;;;;;;1.80;1.20;;;;;;;23.18;45.24;101740.03;5292615;28;20103;-73
2022/07/03 15:22:37;;;;;;;5.82;1.60;;;;;;;22.91;46.14;101742.34;5294726;28;20021;-72
2022/07/03 15:25:11;;;;;;;4.93;1.20;;;;;;;23.25;45.86;101728.94;5294545;28;20752;-72
2022/07/03 15:27:42;;;;;;;2.92;1.40;;;;;;;23.05;46.53;101730.72;5294106;28;20211;-72
2022/07/03 15:30:13;;;;;;;3.47;1.30;;;;;;;23.13;46.00;101740.25;5294850;28;20071;-72
2022/07/03 15:32:47;;;;;;;3.83;1.20;;;;;;;23.02;45.90;101741.94;5295040;28;20077;-73
2022/07/03 15:35:20;;;;;;;3.00;1.13;;;;;;;22.93;45.82;101737.19;5287079;28;20032;-74
2022/07/03 15:38:09;;;;;;;3.13;1.20;;;;;;;22.96;46.07;101739.31;5283244;28;20040;-74
2022/07/03 15:40:46;;;;;;;1.55;1.35;;;;;;;22.61;46.56;101732.44;5281672;28;20074;-73
2022/07/03 15:43:29;;;;;;;3.45;1.30;;;;;;;22.91;45.87;101730.22;5279913;28;20024;-74
2022/07/03 15:46:06;;;;;;;3.28;1.20;;;;;;;23.23;44.91;101732.13;5282398;28;20031;-74
2022/07/03 15:48:55;;;;;;;1.38;0.95;;;;;;;22.99;45.42;101732.97;5267887;28;20025;-74
2022/07/03 15:51:35;;;;;;;2.30;1.10;;;;;;;22.95;44.45;101737.63;5283383;28;20078;-73
2022/07/03 15:54:10;;;;;;;3.33;1.48;;;;;;;22.88;43.86;101737.41;5281787;28;20451;-74
2022/07/03 15:56:45;;;;;;;2.08;1.23;;;;;;;22.71;43.85;101732.78;5283171;28;20062;-73
2022/07/03 15:59:18;;;;;;;4.25;2.80;;;;;;;22.73;44.50;101735.28;5279900;28;20032;-73
2022/07/03 16:02:12;;;;;;;4.70;1.00;;;;;;;22.60;45.28;101739.22;5272035;28;20054;-73
2022/07/03 16:04:58;;;;;;;2.88;1.17;;;;;;;22.35;44.20;101737.19;5282807;28;20430;-74
2022/07/03 16:07:30;;;;;;;2.05;0.90;;;;;;;22.33;44.48;101741.53;5282363;28;20131;-74
2022/07/03 16:10:04;;;;;;;2.72;1.00;;;;;;;22.09;45.50;101745.91;5283041;28;20328;-74
2022/07/03 16:12:37;;;;;;;2.03;1.38;;;;;;;22.28;45.38;101744.59;5282732;28;20024;-74
2022/07/03 16:15:09;;;;;;;3.13;1.63;;;;;;;22.63;44.31;101741.38;5281082;28;20036;-73
2022/07/03 16:17:41;;;;;;;4.03;1.60;;;;;;;22.71;44.12;101737.63;5278661;28;20025;-73
2022/07/03 16:20:16;;;;;;;2.95;1.10;;;;;;;22.94;43.38;101738.00;5286165;28;20020;-73
2022/07/03 16:22:48;;;;;;;2.45;1.10;;;;;;;23.04;43.25;101728.25;5286266;28;20059;-73
2022/07/03 16:25:19;;;;;;;2.67;1.10;;;;;;;23.03;42.77;101735.91;5286974;28;20433;-73
2022/07/03 16:27:51;;;;;;;2.38;1.10;;;;;;;22.79;41.72;101737.50;5285573;28;20093;-73
2022/07/03 16:30:22;;;;;;;1.48;0.80;;;;;;;22.86;41.19;101734.09;5282430;28;20522;-73
2022/07/03 16:32:54;;;;;;;1.88;1.20;;;;;;;22.85;41.87;101732.44;5286600;28;20501;-74
2022/07/03 16:35:43;;;;;;;2.30;1.00;;;;;;;23.00;41.90;101737.44;5269940;28;20017;-73
2022/07/03 16:38:48;;;;;;;2.58;0.98;;;;;;;23.17;41.71;101746.88;5281039;28;20036;-70
2022/07/03 16:41:21;;;;;;;2.20;1.30;;;;;;;23.09;41.26;101742.16;5245695;28;20592;-73
2022/07/03 16:43:57;;;;;;;2.75;1.67;;;;;;;23.27;40.40;101739.91;5284803;28;20056;-73
2022/07/03 16:46:28;;;;;;;2.92;1.48;;;;;;;23.20;40.41;101740.50;5285172;28;20023;-73
2022/07/03 16:49:01;;;;;;;2.90;0.90;;;;;;;23.12;40.28;101744.28;5286626;28;20115;-73
2022/07/03 16:51:39;;;;;;;4.57;2.40;;;;;;;23.37;40.14;101740.25;5276479;28;20112;-74
2022/07/03 16:54:14;;;;;;;2.78;1.00;;;;;;;23.26;40.07;101744.72;5265582;28;20491;-74
2022/07/03 16:56:53;;;;;;;3.03;1.02;;;;;;;23.13;40.13;101748.75;5264112;28;20029;-73
2022/07/03 16:59:25;;;;;;;2.25;1.05;;;;;;;23.28;39.84;101742.38;5264278;28;20033;-75
2022/07/03 17:01:58;;;;;;;4.70;0.98;;;;;;;23.32;39.70;101743.31;5265258;28;20036;-74
2022/07/03 17:04:32;;;;;;;1.63;0.88;;;;;;;23.38;40.37;101744.72;5264743;28;20071;-75
2022/07/03 17:07:04;;;;;;;2.67;1.05;;;;;;;23.37;40.22;101739.44;5266003;28;20428;-74
2022/07/03 17:09:38;;;;;;;1.52;1.30;;;;;;;23.53;39.96;101745.19;5266051;28;20021;-73
2022/07/03 17:12:10;;;;;;;2.58;1.10;;;;;;;23.19;40.52;101741.69;5264598;28;20021;-73
2022/07/03 17:14:44;;;;;;;3.25;1.00;;;;;;;23.12;41.04;101741.44;5268286;28;20547;-72
2022/07/03 17:17:16;;;;;;;2.45;1.20;;;;;;;23.01;41.03;101746.75;5285879;28;20111;-73
2022/07/03 17:20:16;;;;;;;1.65;0.88;;;;;;;22.90;41.28;101746.34;5285371;28;20023;-71
2022/07/03 17:22:48;;;;;;;2.60;0.90;;;;;;;23.10;41.04;101747.44;5284946;28;20082;-72
2022/07/03 17:25:26;;;;;;;2.97;1.00;;;;;;;23.16;41.14;101748.03;5277416;28;20358;-71
2022/07/03 17:28:12;;;;;;;1.95;0.90;;;;;;;22.94;41.88;101750.13;5276035;28;20040;-72
